Jackson Hall, Pennsylvania
Current Conditions -  °F | °C
As of 2:53 AM on Sunday 26 Oct 2014 (Local Time) from KHGR Reporting Station
Few Clouds Few Clouds  
Wind Chill: 61°   Ceiling: Unl
Heat Index: 61°   Visibility: 10mi
Dew Point: 38°   Wind: 22mph
Humidity: 42%   Direction: 300°WNW
Pressure: 29.7"   Gusts: 31mph
Location:  39.9438°N, 77.6827°W
Report Text: KHGR 260653Z AUTO 30019G27KT 10SM FEW060 16/03 A2970 RMK AO2 PK WND 30032/0622 SLP062 T01610033
Loading
Personal Weather Stations






























Interactive Weather Map
Tropical Storm Tracking
New forecast layout! Learn more

10-Day Weather Forecast

Advertisements
Track Severe Weather on mobile